ESMS

Malmö Sturup Airport

Malmö, Sweden
METAR ESMS 161250Z 09006KT 8000 -SN OVC019 00/M00 Q1016 R17/490391
Observed Flight Rules
Dec-16 @ 12:50 UTC (27 minutes ago) Marginal Visual Flight Rules
Wind Visibility Clouds Conditions
90° at 6 knots 7,998 meters
  • Overcast at 1,900' AGL
  • Light Snow
Temperatures Readings
Current 0°C / 32°F
Dewpoint 0°C / 32°F
Humidity 100%
Altimeter 30" Hg
Pressure 1016 hPa
Elevation 106
METAR ESMS 161250Z 09006KT 8000 -SN OVC019 00/M00 Q1016 R17/490391
Observed Flight Rules
Dec-16 @ 12:50 UTC
(27 minutes ago)
MVFR
Wind Visibility
90° at 6 knots 7,998 meters
Clouds
  • Overcast at 1,900' AGL
Conditions
  • Light Snow
Temperature Dewpoint
0°C / 32°F 0°C / 32°F
Humidity Altimeter Pressure
100% 30" Hg 1016 hPa